Time;durP1;ratioP1;P1;durP2;ratioP2;P2;SDS_P1;SDS_P2;PMS_P1;PMS_P2;Temp;Humidity;BMP_temperature;BMP_pressure;BME280_temperature;BME280_humidity;BME280_pressure;Samples;Min_cycle;Max_cycle;Signal;HPM_P1;HPM_P2
2023/01/25 00:01:51;;;;;;;0.40;0.40;;;2.40;99.90;;;;;;4990319;28;20042;-67
2023/01/25 00:04:21;;;;;;;1.17;1.17;;;2.30;99.90;;;;;;4972090;28;20089;-67
2023/01/25 00:06:46;;;;;;;1.17;1.10;;;2.30;99.90;;;;;;4990481;28;20046;-67
2023/01/25 00:09:13;;;;;;;2.50;1.70;;;2.30;99.90;;;;;;4989143;28;20550;-67
2023/01/25 00:11:39;;;;;;;0.57;0.57;;;2.40;99.90;;;;;;4990736;28;20050;-67
2023/01/25 00:14:05;;;;;;;1.17;1.08;;;2.50;99.90;;;;;;4990940;28;20049;-67
2023/01/25 00:16:31;;;;;;;0.35;0.35;;;2.40;99.90;;;;;;4989381;28;20050;-67
2023/01/25 00:18:57;;;;;;;0.85;0.82;;;2.30;99.90;;;;;;4990400;28;20041;-67
2023/01/25 00:21:24;;;;;;;0.55;0.55;;;2.40;99.90;;;;;;4991497;28;20052;-67
2023/01/25 00:23:51;;;;;;;6.47;1.90;;;2.40;99.90;;;;;;4972302;28;20474;-67
2023/01/25 00:26:18;;;;;;;0.77;0.77;;;2.40;99.90;;;;;;4991144;28;20521;-67
2023/01/25 00:28:54;;;;;;;5.15;2.92;;;2.40;99.90;;;;;;4990655;28;20092;-67
2023/01/25 00:31:30;;;;;;;1.13;1.08;;;2.30;99.90;;;;;;4987748;28;20045;-67
2023/01/25 00:34:23;;;;;;;0.40;0.40;;;2.40;99.90;;;;;;4990298;28;20046;-67
2023/01/25 00:37:09;;;;;;;0.68;0.68;;;2.30;99.90;;;;;;4989577;28;20661;-67
2023/01/25 00:39:35;;;;;;;0.93;0.93;;;2.30;99.90;;;;;;4991018;28;20097;-67
2023/01/25 00:42:01;;;;;;;0.10;0.10;;;2.30;99.90;;;;;;4989688;28;20782;-67
2023/01/25 00:44:26;;;;;;;1.75;1.23;;;2.30;99.90;;;;;;4990463;28;20038;-67
2023/01/25 00:46:52;;;;;;;0.30;0.30;;;2.40;99.90;;;;;;4972362;28;20050;-67
2023/01/25 00:49:23;;;;;;;0.25;0.25;;;2.30;99.90;;;;;;4971736;28;20565;-67
2023/01/25 00:51:50;;;;;;;0.75;0.75;;;2.30;99.90;;;;;;4983311;28;20035;-67
2023/01/25 00:54:16;;;;;;;2.30;1.13;;;2.30;99.90;;;;;;4980667;28;20057;-67
2023/01/25 00:56:42;;;;;;;0.10;0.10;;;2.30;99.90;;;;;;4985245;28;20505;-67
2023/01/25 00:59:09;;;;;;;0.70;0.70;;;2.30;99.90;;;;;;4987973;28;20050;-67
2023/01/25 01:01:35;;;;;;;0.28;0.28;;;2.30;99.90;;;;;;4990111;28;20046;-67
2023/01/25 01:04:00;;;;;;;0.32;0.32;;;2.40;99.90;;;;;;4971905;28;20552;-67
2023/01/25 01:06:26;;;;;;;0.20;0.20;;;2.40;99.90;;;;;;4989530;28;20046;-67
2023/01/25 01:08:51;;;;;;;6.68;1.02;;;2.20;99.90;;;;;;4989683;28;20043;-67
2023/01/25 01:11:17;;;;;;;0.85;0.85;;;2.30;99.90;;;;;;4989070;28;20517;-67
2023/01/25 01:13:43;;;;;;;2.75;0.95;;;2.30;99.90;;;;;;4986590;28;20061;-67
2023/01/25 01:16:11;;;;;;;0.45;0.45;;;2.30;99.90;;;;;;4989076;28;20121;-67
2023/01/25 01:18:42;;;;;;;0.57;0.57;;;2.30;99.90;;;;;;4972902;28;20104;-67
2023/01/25 01:21:09;;;;;;;1.95;1.85;;;2.20;99.90;;;;;;4989587;28;20058;-67
2023/01/25 01:23:35;;;;;;;0.95;0.95;;;2.10;99.90;;;;;;4989837;28;20112;-67
2023/01/25 01:26:02;;;;;;;0.40;0.40;;;2.10;99.90;;;;;;4987846;28;20042;-67
2023/01/25 01:28:29;;;;;;;0.65;0.65;;;2.10;99.90;;;;;;4988790;28;20054;-67
2023/01/25 01:31:00;;;;;;;0.73;0.73;;;2.10;99.90;;;;;;4987861;28;20039;-67
2023/01/25 01:33:25;;;;;;;0.73;0.63;;;2.00;99.90;;;;;;4982898;28;20149;-67
2023/01/25 01:35:51;;;;;;;0.75;0.75;;;2.00;99.90;;;;;;4987391;28;20434;-67
2023/01/25 01:38:16;;;;;;;0.10;0.10;;;2.00;99.90;;;;;;4988643;28;20038;-67
2023/01/25 01:40:47;;;;;;;0.30;0.30;;;2.00;99.90;;;;;;4988784;28;20418;-67
2023/01/25 01:43:22;;;;;;;2.10;0.65;;;1.90;99.90;;;;;;4989665;28;20141;-67
2023/01/25 01:45:48;;;;;;;1.08;1.08;;;2.00;99.90;;;;;;4967062;28;20055;-67
2023/01/25 01:48:29;;;;;;;0.90;0.90;;;2.00;99.90;;;;;;4971073;28;20038;-67
2023/01/25 01:51:15;;;;;;;1.33;1.20;;;2.00;99.90;;;;;;4988429;28;20065;-67
2023/01/25 01:53:45;;;;;;;0.38;0.38;;;1.90;99.90;;;;;;4989380;28;20042;-67
2023/01/25 01:56:15;;;;;;;0.47;0.47;;;2.00;99.90;;;;;;4981338;28;20085;-67
2023/01/25 01:58:43;;;;;;;0.70;0.70;;;2.10;99.90;;;;;;4986930;28;20050;-67
2023/01/25 02:01:10;;;;;;;0.60;0.60;;;2.10;99.90;;;;;;4986997;28;20109;-67
2023/01/25 02:03:36;;;;;;;0.55;0.55;;;2.10;99.90;;;;;;4971884;28;20045;-67
2023/01/25 02:06:22;;;;;;;1.95;1.10;;;2.10;99.90;;;;;;4989290;28;20057;-67
2023/01/25 02:08:48;;;;;;;1.23;1.23;;;2.00;99.90;;;;;;4986401;28;20050;-67
2023/01/25 02:11:14;;;;;;;0.90;0.90;;;1.90;99.90;;;;;;4989112;28;20125;-67
2023/01/25 02:13:40;;;;;;;0.10;0.10;;;2.00;99.90;;;;;;4987867;28;20125;-67
2023/01/25 02:16:14;;;;;;;0.52;0.52;;;1.90;99.90;;;;;;4987380;28;20100;-67
2023/01/25 02:18:39;;;;;;;1.05;1.05;;;1.90;99.90;;;;;;4989062;28;20125;-67
2023/01/25 02:21:05;;;;;;;0.28;0.28;;;1.80;99.90;;;;;;4988263;28;20109;-67
2023/01/25 02:23:42;;;;;;;1.38;1.27;;;1.80;99.90;;;;;;4988588;28;20046;-67
2023/01/25 02:26:08;;;;;;;0.85;0.82;;;1.80;99.90;;;;;;4989174;28;20061;-67
2023/01/25 02:28:48;;;;;;;0.40;0.40;;;1.90;99.90;;;;;;4987372;28;20153;-67
2023/01/25 02:31:14;;;;;;;0.30;0.30;;;1.80;99.90;;;;;;4986814;28;20490;-67
2023/01/25 02:33:40;;;;;;;1.98;1.67;;;1.80;99.90;;;;;;4986298;28;20049;-67
2023/01/25 02:36:08;;;;;;;2.65;1.27;;;1.90;99.90;;;;;;4987985;28;20039;-67
2023/01/25 02:38:41;;;;;;;0.17;0.17;;;1.90;99.90;;;;;;4988276;28;20039;-67
2023/01/25 02:41:13;;;;;;;0.20;0.20;;;1.90;99.90;;;;;;4988537;28;20046;-67
2023/01/25 02:43:38;;;;;;;0.70;0.70;;;1.90;99.90;;;;;;4970167;28;20050;-67
2023/01/25 02:46:11;;;;;;;7.55;2.33;;;2.00;99.90;;;;;;4986894;28;20038;-67
2023/01/25 02:48:36;;;;;;;0.93;0.93;;;2.00;99.90;;;;;;4971887;28;20050;-67
2023/01/25 02:51:05;;;;;;;2.00;1.88;;;1.90;99.90;;;;;;4985871;28;20552;-67
2023/01/25 02:53:30;;;;;;;0.40;0.40;;;1.90;99.90;;;;;;4989157;28;20054;-67
2023/01/25 02:55:56;;;;;;;2.55;2.38;;;1.80;99.90;;;;;;4987533;28;20504;-67
2023/01/25 02:58:22;;;;;;;0.63;0.63;;;1.80;99.90;;;;;;4985586;28;20035;-67
2023/01/25 03:00:47;;;;;;;0.40;0.40;;;1.80;99.90;;;;;;4986589;28;20051;-67
2023/01/25 03:03:13;;;;;;;1.33;1.30;;;1.90;99.90;;;;;;4985968;28;20125;-67
2023/01/25 03:05:38;;;;;;;0.77;0.77;;;1.80;99.90;;;;;;4985506;28;20490;-67
2023/01/25 03:08:04;;;;;;;0.20;0.20;;;1.90;99.90;;;;;;4986376;28;20054;-67
2023/01/25 03:10:29;;;;;;;0.82;0.82;;;1.80;99.90;;;;;;4986137;28;20045;-67
2023/01/25 03:12:55;;;;;;;1.05;1.05;;;1.90;99.90;;;;;;4987691;28;20037;-67
2023/01/25 03:15:21;;;;;;;3.05;2.83;;;1.90;99.90;;;;;;4988638;28;20092;-67
2023/01/25 03:17:46;;;;;;;0.68;0.68;;;1.90;99.90;;;;;;4987491;28;20066;-67
2023/01/25 03:20:12;;;;;;;0.38;0.38;;;1.90;99.90;;;;;;4986854;28;20085;-67
2023/01/25 03:22:37;;;;;;;0.68;0.68;;;1.80;99.90;;;;;;4986470;28;20043;-67
2023/01/25 03:25:03;;;;;;;0.20;0.20;;;1.70;99.90;;;;;;4985453;28;20118;-67
2023/01/25 03:27:29;;;;;;;4.78;1.65;;;1.80;99.90;;;;;;4986438;28;20054;-67
2023/01/25 03:29:55;;;;;;;0.70;0.70;;;1.80;99.90;;;;;;4987469;28;20046;-67
2023/01/25 03:32:21;;;;;;;0.57;0.57;;;1.90;99.90;;;;;;4987243;28;20092;-67
2023/01/25 03:34:46;;;;;;;7.97;1.65;;;1.80;99.90;;;;;;4986666;28;20524;-67
2023/01/25 03:37:12;;;;;;;4.97;1.77;;;1.70;99.90;;;;;;4986247;28;20054;-67
2023/01/25 03:39:37;;;;;;;2.58;0.82;;;1.80;99.90;;;;;;4986772;28;20096;-67
2023/01/25 03:42:03;;;;;;;1.45;1.35;;;1.80;99.90;;;;;;4981338;28;20034;-67
2023/01/25 03:44:28;;;;;;;1.00;0.90;;;1.70;99.90;;;;;;4987804;28;20046;-66
2023/01/25 03:46:54;;;;;;;1.58;1.48;;;1.70;99.90;;;;;;4987482;28;20104;-67
2023/01/25 03:49:20;;;;;;;0.80;0.80;;;1.70;99.90;;;;;;4986650;28;20065;-67
2023/01/25 03:51:45;;;;;;;0.75;0.75;;;1.60;99.90;;;;;;4986860;28;20192;-67
2023/01/25 03:54:11;;;;;;;4.28;1.65;;;1.60;99.90;;;;;;4987597;28;20606;-66
2023/01/25 03:56:37;;;;;;;0.38;0.38;;;1.60;99.90;;;;;;4989610;28;20041;-67
2023/01/25 03:59:03;;;;;;;0.22;0.22;;;1.60;99.90;;;;;;4970452;28;20057;-67
2023/01/25 04:01:28;;;;;;;0.82;0.82;;;1.60;99.90;;;;;;4989272;28;20046;-67
2023/01/25 04:03:54;;;;;;;4.35;1.67;;;1.60;99.90;;;;;;4988975;28;20038;-67
2023/01/25 04:06:20;;;;;;;2.10;1.98;;;1.60;99.90;;;;;;4989877;28;20572;-67
2023/01/25 04:08:45;;;;;;;0.50;0.50;;;1.60;99.90;;;;;;4989847;28;20050;-67
2023/01/25 04:11:11;;;;;;;0.98;0.98;;;1.60;99.90;;;;;;4973201;28;20038;-66
2023/01/25 04:13:37;;;;;;;2.50;1.15;;;1.60;99.90;;;;;;4989907;28;20084;-67
2023/01/25 04:16:04;;;;;;;6.55;2.92;;;1.60;99.90;;;;;;4988890;28;20034;-67
2023/01/25 04:18:30;;;;;;;0.40;0.40;;;1.70;99.90;;;;;;4989982;28;20046;-67
2023/01/25 04:20:56;;;;;;;7.80;1.83;;;1.70;99.90;;;;;;4989023;28;20043;-67
2023/01/25 04:23:23;;;;;;;5.15;2.22;;;1.70;99.90;;;;;;4989523;28;20031;-67
2023/01/25 04:25:54;;;;;;;2.47;1.67;;;1.60;99.90;;;;;;4988723;28;20137;-67
2023/01/25 04:28:19;;;;;;;1.30;1.25;;;1.70;99.90;;;;;;4972940;28;20477;-67
2023/01/25 04:30:45;;;;;;;2.15;2.05;;;1.50;99.90;;;;;;4989895;28;20046;-67
2023/01/25 04:33:10;;;;;;;1.83;1.73;;;1.60;99.90;;;;;;4990291;28;20486;-67
2023/01/25 04:35:37;;;;;;;3.13;2.83;;;1.60;99.90;;;;;;4989636;28;20630;-67
2023/01/25 04:38:02;;;;;;;3.83;3.50;;;1.50;99.90;;;;;;4970308;28;20049;-67
2023/01/25 04:40:28;;;;;;;1.65;1.55;;;1.40;99.90;;;;;;4990919;28;20054;-67
2023/01/25 04:42:54;;;;;;;1.42;1.33;;;1.40;99.90;;;;;;4988991;28;20034;-67
2023/01/25 04:45:20;;;;;;;0.10;0.10;;;1.40;99.90;;;;;;4988862;28;20113;-67
2023/01/25 04:47:45;;;;;;;20.42;1.65;;;1.40;99.90;;;;;;4990330;28;20047;-67
2023/01/25 04:50:11;;;;;;;1.13;1.10;;;1.40;99.90;;;;;;4987947;28;20065;-67
2023/01/25 04:52:36;;;;;;;1.52;1.42;;;1.30;99.90;;;;;;4990027;28;20081;-66
2023/01/25 04:55:02;;;;;;;0.43;0.43;;;1.30;99.90;;;;;;4989907;28;20064;-67
2023/01/25 04:57:28;;;;;;;1.17;1.17;;;1.40;99.90;;;;;;4987656;28;20079;-67
2023/01/25 04:59:53;;;;;;;1.65;1.58;;;1.40;99.90;;;;;;4989259;28;20081;-67
2023/01/25 05:02:19;;;;;;;1.80;1.65;;;1.40;99.90;;;;;;4990037;28;20042;-67
2023/01/25 05:04:44;;;;;;;1.30;1.25;;;1.40;99.90;;;;;;4986061;28;20046;-67
2023/01/25 05:07:10;;;;;;;4.15;2.75;;;1.40;99.90;;;;;;4987737;28;20073;-67
2023/01/25 05:09:35;;;;;;;2.45;2.35;;;1.40;99.90;;;;;;4985856;28;20042;-66
2023/01/25 05:12:01;;;;;;;2.25;1.58;;;1.50;99.90;;;;;;4989854;28;20042;-67
2023/01/25 05:14:27;;;;;;;1.98;1.42;;;1.50;99.90;;;;;;4990972;28;20081;-67
2023/01/25 05:16:52;;;;;;;0.57;0.57;;;1.40;99.90;;;;;;4973044;28;20050;-67
2023/01/25 05:19:18;;;;;;;0.85;0.85;;;1.50;99.90;;;;;;4988490;28;20054;-67
2023/01/25 05:21:58;;;;;;;4.10;1.52;;;1.50;99.90;;;;;;4989971;28;20125;-67
2023/01/25 05:24:25;;;;;;;0.60;0.60;;;1.50;99.90;;;;;;4989499;28;20468;-66
2023/01/25 05:27:00;;;;;;;1.17;0.95;;;1.50;99.90;;;;;;4988940;28;20088;-67
2023/01/25 05:29:30;;;;;;;2.60;1.98;;;1.40;99.90;;;;;;4988729;28;20038;-67
2023/01/25 05:31:57;;;;;;;0.32;0.32;;;1.50;99.90;;;;;;4989562;28;20596;-66
2023/01/25 05:34:23;;;;;;;2.17;2.08;;;1.50;99.90;;;;;;4986536;28;20080;-66
2023/01/25 05:36:49;;;;;;;1.42;1.30;;;1.50;99.90;;;;;;4971612;28;20054;-66
2023/01/25 05:39:14;;;;;;;0.75;0.75;;;1.50;99.90;;;;;;4987711;28;20050;-67
2023/01/25 05:41:40;;;;;;;1.55;1.45;;;1.50;99.90;;;;;;4989095;28;20045;-67
2023/01/25 05:44:05;;;;;;;0.73;0.70;;;1.60;99.90;;;;;;4987189;28;20042;-67
2023/01/25 05:46:31;;;;;;;0.57;0.57;;;1.50;99.90;;;;;;4989654;28;20709;-66
2023/01/25 05:48:57;;;;;;;2.35;1.33;;;1.60;99.90;;;;;;4989531;28;20030;-66
2023/01/25 05:51:22;;;;;;;0.45;0.45;;;1.50;99.90;;;;;;4987373;28;20097;-66
2023/01/25 05:53:48;;;;;;;0.20;0.20;;;1.50;99.90;;;;;;4988428;28;20053;-66
2023/01/25 05:56:13;;;;;;;0.25;0.22;;;1.50;99.90;;;;;;4970551;28;20081;-66
2023/01/25 05:58:39;;;;;;;0.32;0.32;;;1.50;99.90;;;;;;4989451;28;20038;-66
2023/01/25 06:01:06;;;;;;;1.17;1.13;;;1.50;99.90;;;;;;4987302;28;20084;-66
2023/01/25 06:03:32;;;;;;;0.10;0.10;;;1.50;99.90;;;;;;4988796;28;20030;-66
2023/01/25 06:06:03;;;;;;;2.42;1.30;;;1.50;99.90;;;;;;4987310;28;20050;-66
2023/01/25 06:08:29;;;;;;;0.22;0.22;;;1.50;99.90;;;;;;4986568;28;20085;-66
2023/01/25 06:10:55;;;;;;;5.68;1.25;;;1.50;99.90;;;;;;4986924;28;20043;-67
2023/01/25 06:13:22;;;;;;;1.00;1.00;;;1.50;99.90;;;;;;4988286;28;20058;-66
2023/01/25 06:15:55;;;;;;;4.68;1.30;;;1.50;99.90;;;;;;4986456;28;20081;-66
2023/01/25 06:18:21;;;;;;;1.92;1.83;;;1.50;99.90;;;;;;4970946;28;20041;-66
2023/01/25 06:20:47;;;;;;;0.40;0.40;;;1.40;99.90;;;;;;4989019;28;20046;-67
2023/01/25 06:23:13;;;;;;;0.47;0.47;;;1.50;99.90;;;;;;4985410;28;20108;-66
2023/01/25 06:25:38;;;;;;;0.43;0.43;;;1.50;99.90;;;;;;4986588;28;20418;-66
2023/01/25 06:28:04;;;;;;;0.43;0.43;;;1.60;99.90;;;;;;4987790;28;20042;-66
2023/01/25 06:30:30;;;;;;;0.20;0.20;;;1.50;99.90;;;;;;4988893;28;20049;-66
2023/01/25 06:32:59;;;;;;;0.93;0.93;;;1.50;99.90;;;;;;4988462;28;20050;-66
2023/01/25 06:35:25;;;;;;;4.60;2.22;;;1.60;99.90;;;;;;4987566;28;20498;-66
2023/01/25 06:37:57;;;;;;;1.70;1.60;;;1.60;99.90;;;;;;4986413;28;20069;-66
2023/01/25 06:40:23;;;;;;;2.75;2.60;;;1.60;99.90;;;;;;4989216;28;20046;-66
2023/01/25 06:42:49;;;;;;;1.90;1.80;;;1.60;99.90;;;;;;4986262;28;20072;-66
2023/01/25 06:45:14;;;;;;;1.63;1.55;;;1.60;99.90;;;;;;4989122;28;20042;-67
2023/01/25 06:47:40;;;;;;;4.75;3.60;;;1.60;99.90;;;;;;4987740;28;20042;-66
2023/01/25 06:50:06;;;;;;;1.38;1.27;;;1.60;99.90;;;;;;4987316;28;20065;-67
2023/01/25 06:52:35;;;;;;;0.20;0.20;;;1.60;99.90;;;;;;4988505;28;20049;-66
2023/01/25 06:55:02;;;;;;;0.30;0.30;;;1.60;99.90;;;;;;4988798;28;20053;-66
2023/01/25 06:57:28;;;;;;;8.55;4.15;;;1.60;99.90;;;;;;4986200;28;20039;-66
2023/01/25 06:59:54;;;;;;;1.58;0.85;;;1.60;99.90;;;;;;4984304;28;20057;-66
2023/01/25 07:02:20;;;;;;;2.50;1.33;;;1.60;99.90;;;;;;4988265;28;20050;-66
2023/01/25 07:04:45;;;;;;;0.40;0.40;;;1.60;99.90;;;;;;4987213;28;20038;-66
2023/01/25 07:07:11;;;;;;;0.63;0.63;;;1.60;99.90;;;;;;4985617;28;20108;-66
2023/01/25 07:09:36;;;;;;;0.35;0.35;;;1.70;99.90;;;;;;4970761;28;20053;-66
2023/01/25 07:12:03;;;;;;;2.03;0.85;;;1.70;99.90;;;;;;4981750;28;20152;-66
2023/01/25 07:14:29;;;;;;;5.72;2.83;;;1.80;99.90;;;;;;4985159;28;20054;-66
2023/01/25 07:16:56;;;;;;;2.95;2.72;;;1.80;99.90;;;;;;4987132;28;20041;-66
2023/01/25 07:19:21;;;;;;;1.38;1.38;;;1.80;99.90;;;;;;4987206;28;20050;-66
2023/01/25 07:21:47;;;;;;;0.30;0.30;;;1.70;99.90;;;;;;4986167;28;20045;-66
2023/01/25 07:24:15;;;;;;;1.02;1.02;;;1.70;99.90;;;;;;4970854;28;20062;-66
2023/01/25 07:26:41;;;;;;;3.40;2.40;;;1.70;99.90;;;;;;4985808;28;20042;-66
2023/01/25 07:29:11;;;;;;;0.57;0.57;;;1.70;99.90;;;;;;4990283;28;20053;-66
2023/01/25 07:31:37;;;;;;;4.22;2.30;;;1.60;99.90;;;;;;4990869;28;20539;-66
2023/01/25 07:34:03;;;;;;;5.05;1.48;;;1.60;99.90;;;;;;4989167;28;20089;-66
2023/01/25 07:36:29;;;;;;;2.83;1.95;;;1.60;99.90;;;;;;4992320;28;20057;-66
2023/01/25 07:38:56;;;;;;;1.20;1.02;;;1.70;99.90;;;;;;4972459;28;20050;-66
2023/01/25 07:41:23;;;;;;;1.30;1.30;;;1.70;99.90;;;;;;4992576;28;20104;-65
2023/01/25 07:43:50;;;;;;;0.82;0.82;;;1.70;99.90;;;;;;4990886;28;20050;-66
2023/01/25 07:46:16;;;;;;;1.27;1.27;;;1.80;99.90;;;;;;4991311;28;20130;-66
2023/01/25 07:48:46;;;;;;;4.60;2.80;;;1.80;99.90;;;;;;4991895;28;20046;-66
2023/01/25 07:51:22;;;;;;;1.33;1.33;;;1.80;99.90;;;;;;4984745;28;20058;-66
2023/01/25 07:54:02;;;;;;;7.22;1.73;;;1.80;99.90;;;;;;4990568;28;20039;-65
2023/01/25 07:56:37;;;;;;;2.28;1.73;;;1.80;99.90;;;;;;4991119;28;20628;-65
2023/01/25 07:59:03;;;;;;;0.82;0.82;;;1.70;99.90;;;;;;4989587;28;20034;-65
2023/01/25 08:01:33;;;;;;;0.43;0.43;;;1.70;99.90;;;;;;4990949;28;20405;-66
2023/01/25 08:03:59;;;;;;;1.30;1.25;;;1.70;99.90;;;;;;4991527;28;20054;-66
2023/01/25 08:06:37;;;;;;;0.75;0.75;;;1.70;99.90;;;;;;4992358;28;20126;-66
2023/01/25 08:09:12;;;;;;;0.45;0.45;;;1.70;99.90;;;;;;4988446;28;20100;-66
2023/01/25 08:11:38;;;;;;;0.55;0.55;;;1.60;99.90;;;;;;4992072;28;20104;-66
2023/01/25 08:14:04;;;;;;;11.38;1.10;;;1.70;99.90;;;;;;4990896;28;20046;-66
2023/01/25 08:16:31;;;;;;;1.65;1.55;;;1.60;99.90;;;;;;4989355;28;20616;-66
2023/01/25 08:18:59;;;;;;;0.75;0.75;;;1.70;99.90;;;;;;4980620;28;20046;-66
2023/01/25 08:21:29;;;;;;;0.55;0.55;;;1.70;99.90;;;;;;4990977;28;20081;-65
2023/01/25 08:24:00;;;;;;;0.52;0.52;;;1.70;99.90;;;;;;4987464;28;20078;-66
2023/01/25 08:26:26;;;;;;;0.20;0.20;;;1.70;99.90;;;;;;4973469;28;20437;-65
2023/01/25 08:28:53;;;;;;;0.60;0.60;;;1.70;99.90;;;;;;4989653;28;20078;-65
2023/01/25 08:31:24;;;;;;;5.40;2.72;;;1.70;99.90;;;;;;4989263;28;20560;-65
2023/01/25 08:33:50;;;;;;;3.47;1.55;;;1.80;99.90;;;;;;4990516;28;20124;-65
2023/01/25 08:36:17;;;;;;;1.23;1.17;;;1.80;99.90;;;;;;4989322;28;20122;-65
2023/01/25 08:38:44;;;;;;;3.35;3.05;;;1.80;99.90;;;;;;4989564;28;20046;-65
2023/01/25 08:41:16;;;;;;;1.23;1.13;;;1.80;99.90;;;;;;4989689;28;20039;-64
2023/01/25 08:43:42;;;;;;;2.58;1.55;;;1.80;99.90;;;;;;4990190;28;20035;-65
2023/01/25 08:46:08;;;;;;;2.33;0.95;;;1.80;99.90;;;;;;4990105;28;20046;-65
2023/01/25 08:48:34;;;;;;;1.58;1.48;;;1.80;99.90;;;;;;4972023;28;20509;-65
2023/01/25 08:51:01;;;;;;;0.75;0.75;;;1.80;99.90;;;;;;4984859;28;20058;-65
2023/01/25 08:53:31;;;;;;;0.52;0.52;;;1.80;99.90;;;;;;4988105;28;20517;-65
2023/01/25 08:56:05;;;;;;;1.15;1.10;;;1.80;99.90;;;;;;4989254;28;20379;-65
2023/01/25 08:58:31;;;;;;;1.10;1.10;;;1.80;99.90;;;;;;4989009;28;20584;-65
2023/01/25 09:01:05;;;;;;;0.20;0.20;;;1.90;99.90;;;;;;4989081;28;20030;-65
2023/01/25 09:03:33;;;;;;;1.40;1.35;;;1.80;99.90;;;;;;4989752;28;20104;-65
2023/01/25 09:05:59;;;;;;;0.45;0.45;;;1.80;99.90;;;;;;4969886;28;20553;-65
2023/01/25 09:08:25;;;;;;;1.75;1.52;;;1.80;99.90;;;;;;4988393;28;20046;-65
2023/01/25 09:10:50;;;;;;;3.08;2.83;;;1.90;99.90;;;;;;4970515;28;20049;-65
2023/01/25 09:13:16;;;;;;;0.98;0.98;;;1.80;99.90;;;;;;4989786;28;20038;-65
2023/01/25 09:15:42;;;;;;;0.50;0.50;;;1.90;99.90;;;;;;4982311;28;20085;-66
2023/01/25 09:18:08;;;;;;;1.40;1.38;;;1.90;99.90;;;;;;4987418;28;20042;-66
2023/01/25 09:20:33;;;;;;;1.58;1.27;;;2.00;99.90;;;;;;4989877;28;20134;-65
2023/01/25 09:22:59;;;;;;;2.05;0.50;;;1.90;99.90;;;;;;4989221;28;20453;-65
2023/01/25 09:25:25;;;;;;;2.17;1.98;;;1.90;99.90;;;;;;4986869;28;20089;-65
2023/01/25 09:27:50;;;;;;;1.42;1.33;;;1.90;99.90;;;;;;4989359;28;21769;-65
2023/01/25 09:30:16;;;;;;;0.95;0.95;;;1.90;99.90;;;;;;4981350;28;20047;-65
2023/01/25 09:32:43;;;;;;;2.83;2.63;;;1.90;99.90;;;;;;4989291;28;20049;-65
2023/01/25 09:35:08;;;;;;;6.22;1.63;;;2.00;99.90;;;;;;4990242;28;20038;-65
2023/01/25 09:37:34;;;;;;;4.95;2.72;;;2.00;99.90;;;;;;4987792;28;20096;-64
2023/01/25 09:40:00;;;;;;;0.90;0.90;;;2.00;99.90;;;;;;4987734;28;20101;-65
2023/01/25 09:42:50;;;;;;;0.25;0.25;;;2.00;99.90;;;;;;4989538;28;20401;-65
2023/01/25 09:45:35;;;;;;;4.03;2.15;;;2.00;99.90;;;;;;4984055;28;20530;-64
2023/01/25 09:48:12;;;;;;;0.57;0.57;;;2.00;99.90;;;;;;4986949;28;20061;-64
2023/01/25 09:50:57;;;;;;;7.03;2.70;;;2.00;99.90;;;;;;4989178;28;20094;-64
2023/01/25 09:53:35;;;;;;;2.20;2.08;;;2.00;99.90;;;;;;4983003;28;20046;-64
2023/01/25 09:56:24;;;;;;;1.88;1.77;;;2.00;99.90;;;;;;4971408;28;20046;-65
2023/01/25 09:58:53;;;;;;;2.20;1.70;;;2.00;99.90;;;;;;4989950;28;20046;-65
2023/01/25 10:01:28;;;;;;;2.20;1.65;;;2.00;99.90;;;;;;4989372;28;20414;-64
2023/01/25 10:04:01;;;;;;;2.20;1.65;;;2.00;99.90;;;;;;4988654;28;20042;-64
2023/01/25 10:06:39;;;;;;;2.22;1.88;;;2.00;99.90;;;;;;4972369;28;20078;-64
2023/01/25 10:09:17;;;;;;;2.38;1.67;;;2.00;99.90;;;;;;4988101;28;20049;-64
2023/01/25 10:11:42;;;;;;;0.50;0.50;;;2.00;99.90;;;;;;4989445;28;20074;-64
2023/01/25 10:14:16;;;;;;;0.93;0.93;;;2.10;99.90;;;;;;4986955;28;20074;-64
2023/01/25 10:16:49;;;;;;;0.63;0.63;;;2.10;99.90;;;;;;4989462;28;20046;-65
2023/01/25 10:19:39;;;;;;;1.47;0.77;;;2.10;99.90;;;;;;4988917;28;20082;-64
2023/01/25 10:22:08;;;;;;;2.60;2.45;;;2.10;99.90;;;;;;4988821;28;20034;-64
2023/01/25 10:24:33;;;;;;;1.98;1.88;;;2.00;99.90;;;;;;4987015;28;20092;-65
2023/01/25 10:27:31;;;;;;;6.30;2.75;;;2.00;99.90;;;;;;4984859;28;20054;-64
2023/01/25 10:30:01;;;;;;;5.13;3.15;;;2.00;99.90;;;;;;4984309;28;20058;-65
2023/01/25 10:32:33;;;;;;;2.95;2.70;;;2.00;99.90;;;;;;4985956;28;20043;-64
2023/01/25 10:35:16;;;;;;;3.10;2.90;;;2.00;99.90;;;;;;4988123;28;20057;-64
2023/01/25 10:37:42;;;;;;;;;;;2.00;99.90;;;;;;4987321;28;20204;-64
2023/01/25 10:40:10;;;;;;;6.47;3.30;;;2.00;99.90;;;;;;4988899;28;20543;-64
2023/01/25 10:42:42;;;;;;;3.97;2.42;;;2.10;99.90;;;;;;4986342;28;20046;-64
2023/01/25 10:45:12;;;;;;;4.32;2.05;;;2.00;99.90;;;;;;4984937;28;20077;-65
2023/01/25 10:47:41;;;;;;;1.65;1.38;;;2.00;99.90;;;;;;4987737;28;20084;-65
2023/01/25 10:50:07;;;;;;;0.80;0.80;;;2.10;99.90;;;;;;4969673;28;20046;-65
2023/01/25 10:52:36;;;;;;;2.67;2.08;;;2.10;99.90;;;;;;4988571;28;20141;-65
2023/01/25 10:55:21;;;;;;;2.00;1.52;;;2.10;99.90;;;;;;4987965;28;20069;-65
2023/01/25 10:57:58;;;;;;;2.08;1.70;;;2.10;99.90;;;;;;4985493;28;20442;-65
2023/01/25 11:00:27;;;;;;;0.63;0.63;;;2.20;99.90;;;;;;4988188;28;20591;-65
2023/01/25 11:02:53;;;;;;;0.75;0.75;;;2.20;99.90;;;;;;4990421;28;20506;-65
2023/01/25 11:05:30;;;;;;;0.57;0.57;;;2.20;99.90;;;;;;4993878;28;20445;-65
2023/01/25 11:07:56;;;;;;;4.43;1.75;;;2.20;99.90;;;;;;4986039;28;20050;-65
2023/01/25 11:10:29;;;;;;;1.67;1.58;;;2.20;99.90;;;;;;4992223;28;20042;-65
2023/01/25 11:13:13;;;;;;;3.22;3.03;;;2.20;99.90;;;;;;4994394;28;20491;-65
2023/01/25 11:15:44;;;;;;;0.95;0.95;;;2.20;99.90;;;;;;4991915;28;20105;-65
2023/01/25 11:18:32;;;;;;;1.08;1.08;;;2.30;99.90;;;;;;4991919;28;20049;-65
2023/01/25 11:21:11;;;;;;;3.05;2.85;;;2.30;99.90;;;;;;4993815;28;20046;-65
2023/01/25 11:23:36;;;;;;;9.07;3.05;;;2.20;99.90;;;;;;4977206;28;20516;-65
2023/01/25 11:26:14;;;;;;;2.78;2.58;;;2.30;99.90;;;;;;4991958;28;20050;-65
2023/01/25 11:28:41;;;;;;;2.90;2.58;;;2.30;99.90;;;;;;4990137;28;20049;-65
2023/01/25 11:31:15;;;;;;;5.78;3.65;;;2.30;99.90;;;;;;4993170;28;20043;-65
2023/01/25 11:33:41;;;;;;;2.67;2.47;;;2.30;99.90;;;;;;4994643;28;20057;-65
2023/01/25 11:36:23;;;;;;;1.70;1.63;;;2.30;99.90;;;;;;4970374;28;20046;-65
2023/01/25 11:39:15;;;;;;;3.20;2.97;;;2.30;99.90;;;;;;4990945;28;20050;-65
2023/01/25 11:42:04;;;;;;;3.65;3.42;;;2.30;99.90;;;;;;4983528;28;20046;-65
2023/01/25 11:44:44;;;;;;;1.45;1.40;;;2.30;99.90;;;;;;4993512;28;20074;-65
2023/01/25 11:47:37;;;;;;;7.03;3.08;;;2.30;99.90;;;;;;4991901;28;20189;-65
2023/01/25 11:50:22;;;;;;;5.38;3.15;;;2.40;99.90;;;;;;4994515;28;20219;-65
2023/01/25 11:52:53;;;;;;;2.15;2.05;;;2.40;99.90;;;;;;4992230;28;20057;-65
2023/01/25 11:55:31;;;;;;;3.88;3.53;;;2.50;99.90;;;;;;4993869;28;20054;-65
2023/01/25 11:58:02;;;;;;;0.75;0.75;;;2.50;99.90;;;;;;4992781;28;20402;-65
2023/01/25 12:00:58;;;;;;;1.13;1.13;;;2.50;99.90;;;;;;4992785;28;20744;-65
2023/01/25 12:03:43;;;;;;;1.33;1.27;;;2.60;99.90;;;;;;4995149;28;20042;-65
2023/01/25 12:06:14;;;;;;;0.88;0.88;;;2.60;99.90;;;;;;4993903;28;20681;-65
2023/01/25 12:08:57;;;;;;;0.77;0.77;;;2.60;99.90;;;;;;4975988;28;20074;-65
2023/01/25 12:11:40;;;;;;;2.30;2.10;;;2.60;99.90;;;;;;4992779;28;20394;-65
2023/01/25 12:14:25;;;;;;;2.92;2.72;;;2.70;99.90;;;;;;4991422;28;20659;-65
2023/01/25 12:17:15;;;;;;;1.70;1.63;;;2.70;99.90;;;;;;4990566;28;20074;-65
2023/01/25 12:19:53;;;;;;;4.75;3.58;;;2.70;99.90;;;;;;4991404;28;20053;-65
2023/01/25 12:22:42;;;;;;;1.85;1.77;;;2.80;99.90;;;;;;4991239;28;20042;-65
2023/01/25 12:25:43;;;;;;;3.22;3.00;;;2.80;99.90;;;;;;4990731;28;20046;-65
2023/01/25 12:28:15;;;;;;;2.42;2.22;;;2.80;99.90;;;;;;4983929;28;20054;-65
2023/01/25 12:30:58;;;;;;;0.93;0.93;;;2.80;99.90;;;;;;4987322;28;20155;-65
2023/01/25 12:33:33;;;;;;;8.90;3.50;;;2.80;99.90;;;;;;4991583;28;20409;-65
2023/01/25 12:36:16;;;;;;;4.63;3.50;;;2.90;99.90;;;;;;4989922;28;20055;-66
2023/01/25 12:38:51;;;;;;;0.60;0.60;;;2.90;99.90;;;;;;4989481;28;20046;-65
2023/01/25 12:41:29;;;;;;;1.67;1.23;;;2.90;99.90;;;;;;4988749;28;20082;-65
2023/01/25 12:44:06;;;;;;;7.18;2.20;;;3.00;99.90;;;;;;4988602;28;20034;-65
2023/01/25 12:46:44;;;;;;;2.90;2.53;;;3.00;99.90;;;;;;4989547;28;20070;-65
2023/01/25 12:49:32;;;;;;;2.95;2.60;;;3.00;99.90;;;;;;4986501;28;20034;-66
2023/01/25 12:52:03;;;;;;;1.92;1.83;;;3.00;99.90;;;;;;4990967;28;20054;-65
2023/01/25 12:54:35;;;;;;;7.85;2.55;;;3.10;99.90;;;;;;4989769;28;20053;-65
2023/01/25 12:57:15;;;;;;;1.23;1.23;;;3.10;99.90;;;;;;4986732;28;20092;-66
2023/01/25 12:59:49;;;;;;;0.95;0.95;;;3.10;99.90;;;;;;4990627;28;20104;-65
2023/01/25 13:02:41;;;;;;;2.30;2.20;;;3.10;99.90;;;;;;4990003;28;20042;-65
2023/01/25 13:05:37;;;;;;;0.85;0.85;;;3.10;99.90;;;;;;4991045;28;20047;-65
2023/01/25 13:08:18;;;;;;;4.68;4.28;;;3.20;99.90;;;;;;4983911;28;20042;-65
2023/01/25 13:10:57;;;;;;;4.95;4.45;;;3.20;99.90;;;;;;4987181;28;20049;-65
2023/01/25 13:13:25;;;;;;;1.83;1.70;;;3.20;99.90;;;;;;4989659;28;20058;-65